TAF Portugal - 19 Feb 2018 - 0157 UTC - RocketRoute WX - rrwx.com
LPFR 182300Z 1900/1924 VRB03KT CAVOK TEMPO 1902/1908 03007KT BECMG 1910/1912 19008KT BECMG 1916/1918 27008KT BECMG 1920/1922 VRB03KT LPPT 182300Z 1900/2006 04008KT CAVOK BECMG 1915/1917 34012KT BECMG 2000/2002 04008KT LPMA 182300Z 1900/1924 02012KT 9999 SCT015 TEMPO 1900/1906 8000 SHRA BKN015 FEW018TCU PROB30 TEMPO 1912/1918 02017G27KT LPPD 182300Z 1900/1924 19005KT 9999 FEW025 TEMPO 1900/1924 SCT020 BKN040 PROB30 1906/1911 12008KT BECMG 1911/1915 14007KT LPPR 182300Z 1900/1924 VRB03KT CAVOK BECMG 1912/1914 33010KT BECMG 1920/1922 VRB03KT LPPS 182300Z 1900/2006 06012KT 9999 FEW015 SCT030 TEMPO 1900/2006 SCT015 BKN030 BECMG 1902/1905 03012KT LPAZ 182300Z 1900/2006 VRB05KT 9999 FEW025 TEMPO 1900/1918 SCT020 BKN040 BECMG 1911/1914 15008KT BECMG 1920/1923 10010KT FEW018 BKN035 LPST  

RocketRoute WX - rrwx.com weather for pilots